sensor_id;sensor_type;location;lat;lon;timestamp;temperature;humidity
33673;DHT22;20011;51.510;9.942;2023-02-28T00:06:19;3.40;79.60
33673;DHT22;20011;51.510;9.942;2023-02-28T00:11:15;3.40;80.30
33673;DHT22;20011;51.510;9.942;2023-02-28T00:13:44;3.40;80.80
33673;DHT22;20011;51.510;9.942;2023-02-28T00:16:17;3.40;80.00
33673;DHT22;20011;51.510;9.942;2023-02-28T00:36:06;3.40;79.30
33673;DHT22;20011;51.510;9.942;2023-02-28T00:43:36;3.50;78.00
33673;DHT22;20011;51.510;9.942;2023-02-28T00:53:25;3.50;86.00
33673;DHT22;20011;51.510;9.942;2023-02-28T00:55:52;3.50;84.40
33673;DHT22;20011;51.510;9.942;2023-02-28T01:03:17;3.30;87.30
33673;DHT22;20011;51.510;9.942;2023-02-28T01:05:46;3.10;90.10
33673;DHT22;20011;51.510;9.942;2023-02-28T01:08:13;3.10;90.50
33673;DHT22;20011;51.510;9.942;2023-02-28T01:10:41;2.60;90.80
33673;DHT22;20011;51.510;9.942;2023-02-28T01:13:08;2.30;91.20
33673;DHT22;20011;51.510;9.942;2023-02-28T01:40:13;3.40;78.80
33673;DHT22;20011;51.510;9.942;2023-02-28T01:47:53;3.50;88.30
33673;DHT22;20011;51.510;9.942;2023-02-28T01:50:25;3.50;89.80
33673;DHT22;20011;51.510;9.942;2023-02-28T01:52:55;3.40;89.60
33673;DHT22;20011;51.510;9.942;2023-02-28T01:55:24;3.40;90.60
33673;DHT22;20011;51.510;9.942;2023-02-28T01:57:59;3.40;90.80
33673;DHT22;20011;51.510;9.942;2023-02-28T02:00:27;3.30;90.80
33673;DHT22;20011;51.510;9.942;2023-02-28T02:03:04;3.00;90.90
33673;DHT22;20011;51.510;9.942;2023-02-28T02:08:09;3.30;91.30
33673;DHT22;20011;51.510;9.942;2023-02-28T02:10:44;3.20;91.40
33673;DHT22;20011;51.510;9.942;2023-02-28T02:18:48;3.30;91.00
33673;DHT22;20011;51.510;9.942;2023-02-28T02:26:44;3.20;88.00
33673;DHT22;20011;51.510;9.942;2023-02-28T02:32:42;3.30;86.90
33673;DHT22;20011;51.510;9.942;2023-02-28T02:35:27;3.30;85.00
33673;DHT22;20011;51.510;9.942;2023-02-28T02:43:36;3.30;82.40
33673;DHT22;20011;51.510;9.942;2023-02-28T02:46:14;3.10;82.70
33673;DHT22;20011;51.510;9.942;2023-02-28T02:51:17;3.30;82.60
33673;DHT22;20011;51.510;9.942;2023-02-28T02:53:50;3.30;86.50
33673;DHT22;20011;51.510;9.942;2023-02-28T02:56:22;3.30;90.40
33673;DHT22;20011;51.510;9.942;2023-02-28T02:58:51;3.30;91.30
33673;DHT22;20011;51.510;9.942;2023-02-28T03:01:22;3.30;92.30
33673;DHT22;20011;51.510;9.942;2023-02-28T03:04:01;3.90;92.60
33673;DHT22;20011;51.510;9.942;2023-02-28T03:16:59;3.10;94.50
33673;DHT22;20011;51.510;9.942;2023-02-28T03:25:18;3.00;94.90
33673;DHT22;20011;51.510;9.942;2023-02-28T03:30:25;2.90;95.50
33673;DHT22;20011;51.510;9.942;2023-02-28T03:33:05;2.90;95.70
33673;DHT22;20011;51.510;9.942;2023-02-28T03:35:40;2.70;95.60
33673;DHT22;20011;51.510;9.942;2023-02-28T03:38:37;4.70;96.40
33673;DHT22;20011;51.510;9.942;2023-02-28T03:43:58;3.00;88.40
33673;DHT22;20011;51.510;9.942;2023-02-28T03:46:30;3.00;85.80
33673;DHT22;20011;51.510;9.942;2023-02-28T03:54:02;3.30;82.00
33673;DHT22;20011;51.510;9.942;2023-02-28T03:56:36;3.30;81.90
33673;DHT22;20011;51.510;9.942;2023-02-28T03:59:18;2.80;82.10
33673;DHT22;20011;51.510;9.942;2023-02-28T04:01:48;3.40;80.40
33673;DHT22;20011;51.510;9.942;2023-02-28T04:04:16;3.40;81.40
33673;DHT22;20011;51.510;9.942;2023-02-28T04:06:44;3.50;85.70
33673;DHT22;20011;51.510;9.942;2023-02-28T04:09:13;3.50;90.30
33673;DHT22;20011;51.510;9.942;2023-02-28T04:11:42;3.60;91.20
33673;DHT22;20011;51.510;9.942;2023-02-28T04:14:11;3.60;91.90
33673;DHT22;20011;51.510;9.942;2023-02-28T04:16:40;3.60;92.50
33673;DHT22;20011;51.510;9.942;2023-02-28T04:19:08;3.60;92.10
33673;DHT22;20011;51.510;9.942;2023-02-28T04:21:38;3.60;92.10
33673;DHT22;20011;51.510;9.942;2023-02-28T04:24:10;3.60;92.30
33673;DHT22;20011;51.510;9.942;2023-02-28T04:26:43;3.50;92.30
33673;DHT22;20011;51.510;9.942;2023-02-28T04:29:12;3.40;92.00
33673;DHT22;20011;51.510;9.942;2023-02-28T04:56:17;3.40;82.50
33673;DHT22;20011;51.510;9.942;2023-02-28T05:03:55;3.40;81.40
33673;DHT22;20011;51.510;9.942;2023-02-28T05:06:25;3.40;81.60
33673;DHT22;20011;51.510;9.942;2023-02-28T05:08:53;3.40;81.70
33673;DHT22;20011;51.510;9.942;2023-02-28T05:11:23;3.40;82.20
33673;DHT22;20011;51.510;9.942;2023-02-28T05:21:27;3.40;82.90
33673;DHT22;20011;51.510;9.942;2023-02-28T05:23:56;6.50;85.10
33673;DHT22;20011;51.510;9.942;2023-02-28T05:26:25;3.50;83.30
33673;DHT22;20011;51.510;9.942;2023-02-28T05:41:10;3.50;83.50
33673;DHT22;20011;51.510;9.942;2023-02-28T05:43:38;3.40;85.20
33673;DHT22;20011;51.510;9.942;2023-02-28T05:46:07;3.50;82.90
33673;DHT22;20011;51.510;9.942;2023-02-28T05:48:40;6.50;85.40
33673;DHT22;20011;51.510;9.942;2023-02-28T05:51:08;3.50;83.40
33673;DHT22;20011;51.510;9.942;2023-02-28T05:53:39;3.50;82.80
33673;DHT22;20011;51.510;9.942;2023-02-28T05:56:09;3.50;83.20
33673;DHT22;20011;51.510;9.942;2023-02-28T05:58:38;3.50;83.20
33673;DHT22;20011;51.510;9.942;2023-02-28T06:01:38;3.60;83.00
33673;DHT22;20011;51.510;9.942;2023-02-28T06:04:08;3.50;82.30
33673;DHT22;20011;51.510;9.942;2023-02-28T06:09:18;3.50;82.60
33673;DHT22;20011;51.510;9.942;2023-02-28T06:14:18;3.60;82.50
33673;DHT22;20011;51.510;9.942;2023-02-28T06:24:10;3.60;81.90
33673;DHT22;20011;51.510;9.942;2023-02-28T06:29:04;3.60;81.50
33673;DHT22;20011;51.510;9.942;2023-02-28T06:36:27;3.70;82.80
33673;DHT22;20011;51.510;9.942;2023-02-28T06:41:24;3.70;81.70
33673;DHT22;20011;51.510;9.942;2023-02-28T06:51:16;3.70;81.00
33673;DHT22;20011;51.510;9.942;2023-02-28T06:53:43;3.70;81.20
33673;DHT22;20011;51.510;9.942;2023-02-28T06:56:13;3.80;82.00
33673;DHT22;20011;51.510;9.942;2023-02-28T07:01:08;3.80;81.60
33673;DHT22;20011;51.510;9.942;2023-02-28T07:06:04;3.80;81.60
33673;DHT22;20011;51.510;9.942;2023-02-28T07:10:59;3.70;81.30
33673;DHT22;20011;51.510;9.942;2023-02-28T07:18:25;3.90;80.40
33673;DHT22;20011;51.510;9.942;2023-02-28T07:20:54;3.80;82.20
33673;DHT22;20011;51.510;9.942;2023-02-28T07:25:50;3.90;79.60
33673;DHT22;20011;51.510;9.942;2023-02-28T08:00:17;4.00;79.00
33673;DHT22;20011;51.510;9.942;2023-02-28T08:10:07;4.00;79.10
33673;DHT22;20011;51.510;9.942;2023-02-28T08:15:04;4.00;78.20
33673;DHT22;20011;51.510;9.942;2023-02-28T08:47:17;4.10;75.60
33673;DHT22;20011;51.510;9.942;2023-02-28T09:34:17;4.40;73.70
33673;DHT22;20011;51.510;9.942;2023-02-28T09:41:44;4.50;71.00
33673;DHT22;20011;51.510;9.942;2023-02-28T09:47:40;4.40;69.10
33673;DHT22;20011;51.510;9.942;2023-02-28T09:52:46;4.40;69.00
33673;DHT22;20011;51.510;9.942;2023-02-28T09:55:30;4.50;68.00
33673;DHT22;20011;51.510;9.942;2023-02-28T09:58:49;4.40;68.20
33673;DHT22;20011;51.510;9.942;2023-02-28T10:01:43;4.40;67.30
33673;DHT22;20011;51.510;9.942;2023-02-28T10:07:37;4.50;68.40
33673;DHT22;20011;51.510;9.942;2023-02-28T10:10:26;4.60;68.40
33673;DHT22;20011;51.510;9.942;2023-02-28T10:12:57;4.50;67.00
33673;DHT22;20011;51.510;9.942;2023-02-28T10:15:29;4.60;66.70
33673;DHT22;20011;51.510;9.942;2023-02-28T10:18:02;4.50;66.40
33673;DHT22;20011;51.510;9.942;2023-02-28T10:20:38;4.40;66.60
33673;DHT22;20011;51.510;9.942;2023-02-28T10:23:26;4.50;66.70
33673;DHT22;20011;51.510;9.942;2023-02-28T10:26:11;4.50;67.50
33673;DHT22;20011;51.510;9.942;2023-02-28T10:31:15;4.60;68.00
33673;DHT22;20011;51.510;9.942;2023-02-28T10:33:44;4.60;68.70
33673;DHT22;20011;51.510;9.942;2023-02-28T10:36:17;4.30;69.30
33673;DHT22;20011;51.510;9.942;2023-02-28T10:38:46;4.70;68.30
33673;DHT22;20011;51.510;9.942;2023-02-28T10:43:42;4.70;68.90
33673;DHT22;20011;51.510;9.942;2023-02-28T10:46:15;4.70;69.90
33673;DHT22;20011;51.510;9.942;2023-02-28T10:49:06;4.50;70.20
33673;DHT22;20011;51.510;9.942;2023-02-28T10:51:37;7.40;73.00
33673;DHT22;20011;51.510;9.942;2023-02-28T10:56:32;4.40;67.90
33673;DHT22;20011;51.510;9.942;2023-02-28T10:59:08;4.80;70.40
33673;DHT22;20011;51.510;9.942;2023-02-28T11:07:01;4.80;68.50
33673;DHT22;20011;51.510;9.942;2023-02-28T11:09:39;4.10;68.80
33673;DHT22;20011;51.510;9.942;2023-02-28T11:12:18;7.10;70.60
33673;DHT22;20011;51.510;9.942;2023-02-28T11:14:52;4.80;68.10
33673;DHT22;20011;51.510;9.942;2023-02-28T11:17:24;4.80;68.40
33673;DHT22;20011;51.510;9.942;2023-02-28T11:19:58;4.90;68.50
33673;DHT22;20011;51.510;9.942;2023-02-28T11:22:28;4.90;68.00
33673;DHT22;20011;51.510;9.942;2023-02-28T11:25:00;4.60;68.30
33673;DHT22;20011;51.510;9.942;2023-02-28T11:29:58;4.60;68.40
33673;DHT22;20011;51.510;9.942;2023-02-28T11:32:29;4.90;68.20
33673;DHT22;20011;51.510;9.942;2023-02-28T11:35:30;7.50;70.70
33673;DHT22;20011;51.510;9.942;2023-02-28T11:37:58;7.90;70.90
33673;DHT22;20011;51.510;9.942;2023-02-28T11:41:17;5.00;68.20
33673;DHT22;20011;51.510;9.942;2023-02-28T11:52:50;5.00;69.50
33673;DHT22;20011;51.510;9.942;2023-02-28T12:03:50;5.00;66.00
33673;DHT22;20011;51.510;9.942;2023-02-28T12:06:39;5.20;66.00
33673;DHT22;20011;51.510;9.942;2023-02-28T12:09:39;4.70;66.30
33673;DHT22;20011;51.510;9.942;2023-02-28T12:21:31;5.10;66.30
33673;DHT22;20011;51.510;9.942;2023-02-28T12:27:10;5.20;65.80
33673;DHT22;20011;51.510;9.942;2023-02-28T12:30:41;5.10;66.70
33673;DHT22;20011;51.510;9.942;2023-02-28T12:32:52;5.10;66.50
33673;DHT22;20011;51.510;9.942;2023-02-28T12:43:27;5.30;66.40
33673;DHT22;20011;51.510;9.942;2023-02-28T12:45:58;5.30;66.70
33673;DHT22;20011;51.510;9.942;2023-02-28T12:51:34;5.20;65.70
33673;DHT22;20011;51.510;9.942;2023-02-28T12:57:15;5.00;67.40
33673;DHT22;20011;51.510;9.942;2023-02-28T12:59:55;5.20;67.10
33673;DHT22;20011;51.510;9.942;2023-02-28T13:02:51;5.30;66.50
33673;DHT22;20011;51.510;9.942;2023-02-28T13:11:29;5.30;66.70
33673;DHT22;20011;51.510;9.942;2023-02-28T13:14:04;5.70;66.90
33673;DHT22;20011;51.510;9.942;2023-02-28T13:16:54;5.30;65.00
33673;DHT22;20011;51.510;9.942;2023-02-28T13:19:24;5.30;64.50
33673;DHT22;20011;51.510;9.942;2023-02-28T13:24:42;5.30;65.00
33673;DHT22;20011;51.510;9.942;2023-02-28T13:32:31;2.20;65.50
33673;DHT22;20011;51.510;9.942;2023-02-28T13:40:26;5.40;66.10
33673;DHT22;20011;51.510;9.942;2023-02-28T13:42:54;5.40;66.60
33673;DHT22;20011;51.510;9.942;2023-02-28T13:45:24;5.50;68.70
33673;DHT22;20011;51.510;9.942;2023-02-28T13:48:02;5.50;67.80
33673;DHT22;20011;51.510;9.942;2023-02-28T13:56:06;5.50;68.40
33673;DHT22;20011;51.510;9.942;2023-02-28T13:58:54;5.50;68.60
33673;DHT22;20011;51.510;9.942;2023-02-28T14:04:34;5.50;68.00
33673;DHT22;20011;51.510;9.942;2023-02-28T14:07:25;5.60;66.30
33673;DHT22;20011;51.510;9.942;2023-02-28T14:10:37;5.60;66.30
33673;DHT22;20011;51.510;9.942;2023-02-28T14:17:15;5.60;67.50
33673;DHT22;20011;51.510;9.942;2023-02-28T14:19:57;5.80;68.00
33673;DHT22;20011;51.510;9.942;2023-02-28T14:22:32;5.50;67.20
33673;DHT22;20011;51.510;9.942;2023-02-28T14:25:27;5.70;67.20
33673;DHT22;20011;51.510;9.942;2023-02-28T14:31:03;5.70;66.80
33673;DHT22;20011;51.510;9.942;2023-02-28T14:34:05;5.60;67.80
33673;DHT22;20011;51.510;9.942;2023-02-28T14:36:40;5.70;69.30
33673;DHT22;20011;51.510;9.942;2023-02-28T14:39:14;9.20;70.00
33673;DHT22;20011;51.510;9.942;2023-02-28T14:41:43;5.70;66.90
33673;DHT22;20011;51.510;9.942;2023-02-28T14:44:21;5.30;67.10
33673;DHT22;20011;51.510;9.942;2023-02-28T14:46:50;5.70;67.90
33673;DHT22;20011;51.510;9.942;2023-02-28T14:49:35;5.10;67.00
33673;DHT22;20011;51.510;9.942;2023-02-28T14:52:57;5.70;66.60
33673;DHT22;20011;51.510;9.942;2023-02-28T14:56:40;5.70;66.40
33673;DHT22;20011;51.510;9.942;2023-02-28T14:58:53;6.10;66.70
33673;DHT22;20011;51.510;9.942;2023-02-28T15:01:22;5.70;67.90
33673;DHT22;20011;51.510;9.942;2023-02-28T15:03:58;5.70;68.30
33673;DHT22;20011;51.510;9.942;2023-02-28T15:09:14;5.70;67.80
33673;DHT22;20011;51.510;9.942;2023-02-28T15:14:16;5.70;67.20
33673;DHT22;20011;51.510;9.942;2023-02-28T15:16:44;5.70;67.70
33673;DHT22;20011;51.510;9.942;2023-02-28T15:19:29;5.50;68.10
33673;DHT22;20011;51.510;9.942;2023-02-28T15:22:02;5.70;66.20
33673;DHT22;20011;51.510;9.942;2023-02-28T15:24:46;5.50;66.40
33673;DHT22;20011;51.510;9.942;2023-02-28T15:27:19;5.70;67.00
33673;DHT22;20011;51.510;9.942;2023-02-28T15:29:53;5.70;67.50
33673;DHT22;20011;51.510;9.942;2023-02-28T15:34:54;5.70;67.20
33673;DHT22;20011;51.510;9.942;2023-02-28T15:40:22;5.70;68.50
33673;DHT22;20011;51.510;9.942;2023-02-28T15:45:38;5.70;68.10
33673;DHT22;20011;51.510;9.942;2023-02-28T15:48:23;5.70;68.50
33673;DHT22;20011;51.510;9.942;2023-02-28T15:51:18;8.30;69.90
33673;DHT22;20011;51.510;9.942;2023-02-28T15:53:56;5.90;70.70
33673;DHT22;20011;51.510;9.942;2023-02-28T15:56:27;5.70;69.10
33673;DHT22;20011;51.510;9.942;2023-02-28T15:59:15;5.60;69.00
33673;DHT22;20011;51.510;9.942;2023-02-28T16:04:18;5.70;69.40
33673;DHT22;20011;51.510;9.942;2023-02-28T16:09:15;5.70;69.00
33673;DHT22;20011;51.510;9.942;2023-02-28T16:11:50;5.70;69.20
33673;DHT22;20011;51.510;9.942;2023-02-28T16:14:22;5.60;69.30
33673;DHT22;20011;51.510;9.942;2023-02-28T16:16:52;5.70;68.90
33673;DHT22;20011;51.510;9.942;2023-02-28T16:21:47;5.70;68.40
33673;DHT22;20011;51.510;9.942;2023-02-28T16:26:46;5.60;69.10
33673;DHT22;20011;51.510;9.942;2023-02-28T16:29:24;5.70;69.90
33673;DHT22;20011;51.510;9.942;2023-02-28T16:31:58;5.60;70.30
33673;DHT22;20011;51.510;9.942;2023-02-28T16:41:48;5.60;70.40
33673;DHT22;20011;51.510;9.942;2023-02-28T16:44:30;5.50;71.40
33673;DHT22;20011;51.510;9.942;2023-02-28T16:47:00;4.50;70.30
33673;DHT22;20011;51.510;9.942;2023-02-28T16:51:56;5.50;69.80
33673;DHT22;20011;51.510;9.942;2023-02-28T16:56:55;5.40;69.70
33673;DHT22;20011;51.510;9.942;2023-02-28T16:59:26;5.50;70.20
33673;DHT22;20011;51.510;9.942;2023-02-28T17:01:54;5.40;70.50
33673;DHT22;20011;51.510;9.942;2023-02-28T17:04:28;5.40;71.10
33673;DHT22;20011;51.510;9.942;2023-02-28T17:09:33;5.40;70.90
33673;DHT22;20011;51.510;9.942;2023-02-28T17:17:06;5.40;71.50
33673;DHT22;20011;51.510;9.942;2023-02-28T17:26:58;5.30;70.00
33673;DHT22;20011;51.510;9.942;2023-02-28T17:32:07;5.30;70.60
33673;DHT22;20011;51.510;9.942;2023-02-28T17:39:42;5.20;70.50
33673;DHT22;20011;51.510;9.942;2023-02-28T17:49:45;5.10;71.40
33673;DHT22;20011;51.510;9.942;2023-02-28T17:57:15;5.00;71.90
33673;DHT22;20011;51.510;9.942;2023-02-28T17:59:43;5.30;72.70
33673;DHT22;20011;51.510;9.942;2023-02-28T18:02:12;4.90;72.30
33673;DHT22;20011;51.510;9.942;2023-02-28T18:07:11;4.90;71.80
33673;DHT22;20011;51.510;9.942;2023-02-28T18:12:07;5.00;72.10
33673;DHT22;20011;51.510;9.942;2023-02-28T18:17:15;4.80;72.60
33673;DHT22;20011;51.510;9.942;2023-02-28T18:20:34;4.80;72.90
33673;DHT22;20011;51.510;9.942;2023-02-28T18:27:57;4.70;72.50
33673;DHT22;20011;51.510;9.942;2023-02-28T18:30:29;4.70;72.80
33673;DHT22;20011;51.510;9.942;2023-02-28T18:33:01;6.20;74.10
33673;DHT22;20011;51.510;9.942;2023-02-28T18:35:29;4.70;72.80
33673;DHT22;20011;51.510;9.942;2023-02-28T18:38:16;4.90;73.00
33673;DHT22;20011;51.510;9.942;2023-02-28T18:40:57;4.60;72.50
33673;DHT22;20011;51.510;9.942;2023-02-28T18:48:24;4.70;74.10
33673;DHT22;20011;51.510;9.942;2023-02-28T18:55:48;4.50;73.70
33673;DHT22;20011;51.510;9.942;2023-02-28T18:58:15;4.60;75.00
33673;DHT22;20011;51.510;9.942;2023-02-28T19:03:10;4.60;73.90
33673;DHT22;20011;51.510;9.942;2023-02-28T19:09:01;4.50;74.00
33673;DHT22;20011;51.510;9.942;2023-02-28T19:11:30;4.50;73.90
33673;DHT22;20011;51.510;9.942;2023-02-28T19:14:00;4.40;74.20
33673;DHT22;20011;51.510;9.942;2023-02-28T19:21:33;4.40;74.70
33673;DHT22;20011;51.510;9.942;2023-02-28T19:24:05;4.40;76.60
33673;DHT22;20011;51.510;9.942;2023-02-28T19:29:02;4.30;77.90
33673;DHT22;20011;51.510;9.942;2023-02-28T19:31:31;3.70;78.00
33673;DHT22;20011;51.510;9.942;2023-02-28T19:34:02;4.10;78.60
33673;DHT22;20011;51.510;9.942;2023-02-28T19:41:31;4.00;80.90
33673;DHT22;20011;51.510;9.942;2023-02-28T19:43:58;3.20;81.30
33673;DHT22;20011;51.510;9.942;2023-02-28T19:46:25;3.40;81.90
33673;DHT22;20011;51.510;9.942;2023-02-28T19:48:55;3.60;82.00
33673;DHT22;20011;51.510;9.942;2023-02-28T19:56:17;3.60;81.70
33673;DHT22;20011;51.510;9.942;2023-02-28T20:01:14;3.50;81.60
33673;DHT22;20011;51.510;9.942;2023-02-28T20:06:10;3.50;82.20
33673;DHT22;20011;51.510;9.942;2023-02-28T20:11:09;3.40;81.90
33673;DHT22;20011;51.510;9.942;2023-02-28T20:16:10;3.50;82.00
33673;DHT22;20011;51.510;9.942;2023-02-28T20:18:39;3.50;82.40
33673;DHT22;20011;51.510;9.942;2023-02-28T20:21:10;3.50;82.80
33673;DHT22;20011;51.510;9.942;2023-02-28T20:26:08;3.40;82.80
33673;DHT22;20011;51.510;9.942;2023-02-28T20:28:41;3.30;83.70
33673;DHT22;20011;51.510;9.942;2023-02-28T20:31:18;3.30;85.00
33673;DHT22;20011;51.510;9.942;2023-02-28T20:33:47;3.10;85.00
33673;DHT22;20011;51.510;9.942;2023-02-28T20:48:36;2.80;87.30
33673;DHT22;20011;51.510;9.942;2023-02-28T20:51:05;2.70;87.80
33673;DHT22;20011;51.510;9.942;2023-02-28T20:53:33;2.60;88.00
33673;DHT22;20011;51.510;9.942;2023-02-28T20:56:04;2.60;88.40
33673;DHT22;20011;51.510;9.942;2023-02-28T20:58:32;2.50;89.10
33673;DHT22;20011;51.510;9.942;2023-02-28T21:01:22;2.50;89.10
33673;DHT22;20011;51.510;9.942;2023-02-28T21:03:54;2.40;89.80
33673;DHT22;20011;51.510;9.942;2023-02-28T21:06:28;2.40;90.00
33673;DHT22;20011;51.510;9.942;2023-02-28T21:08:57;2.30;90.10
33673;DHT22;20011;51.510;9.942;2023-02-28T21:11:31;1.60;90.40
33673;DHT22;20011;51.510;9.942;2023-02-28T21:14:01;2.40;90.00
33673;DHT22;20011;51.510;9.942;2023-02-28T21:16:28;2.30;90.00
33673;DHT22;20011;51.510;9.942;2023-02-28T21:18:55;1.70;90.70
33673;DHT22;20011;51.510;9.942;2023-02-28T21:21:34;3.40;91.50
33673;DHT22;20011;51.510;9.942;2023-02-28T21:24:02;2.50;90.50
33673;DHT22;20011;51.510;9.942;2023-02-28T21:26:29;2.40;90.60
33673;DHT22;20011;51.510;9.942;2023-02-28T21:29:02;5.30;91.80
33673;DHT22;20011;51.510;9.942;2023-02-28T21:31:30;2.80;90.70
33673;DHT22;20011;51.510;9.942;2023-02-28T21:33:58;4.60;90.70
33673;DHT22;20011;51.510;9.942;2023-02-28T21:36:26;4.00;91.00
33673;DHT22;20011;51.510;9.942;2023-02-28T21:38:59;6.40;91.50
33673;DHT22;20011;51.510;9.942;2023-02-28T21:41:27;2.10;90.20
33673;DHT22;20011;51.510;9.942;2023-02-28T21:43:54;3.10;90.50
33673;DHT22;20011;51.510;9.942;2023-02-28T21:46:23;7.40;91.70
33673;DHT22;20011;51.510;9.942;2023-02-28T21:48:54;2.90;90.40
33673;DHT22;20011;51.510;9.942;2023-02-28T21:51:21;1.50;90.10
33673;DHT22;20011;51.510;9.942;2023-02-28T21:53:51;2.50;90.30
33673;DHT22;20011;51.510;9.942;2023-02-28T21:56:26;5.70;91.90
33673;DHT22;20011;51.510;9.942;2023-02-28T21:58:53;2.80;90.70
33673;DHT22;20011;51.510;9.942;2023-02-28T22:01:27;4.60;91.30
33673;DHT22;20011;51.510;9.942;2023-02-28T22:03:57;6.30;91.50
33673;DHT22;20011;51.510;9.942;2023-02-28T22:06:25;5.10;91.70
33673;DHT22;20011;51.510;9.942;2023-02-28T22:08:54;6.90;92.90
33673;DHT22;20011;51.510;9.942;2023-02-28T22:11:22;3.90;92.60
33673;DHT22;20011;51.510;9.942;2023-02-28T22:13:50;4.10;92.50
33673;DHT22;20011;51.510;9.942;2023-02-28T22:16:19;2.70;92.30
33673;DHT22;20011;51.510;9.942;2023-02-28T22:18:46;2.40;92.10
33673;DHT22;20011;51.510;9.942;2023-02-28T22:21:13;6.20;93.30
33673;DHT22;20011;51.510;9.942;2023-02-28T22:23:41;5.60;93.60
33673;DHT22;20011;51.510;9.942;2023-02-28T22:26:09;5.90;93.50
33673;DHT22;20011;51.510;9.942;2023-02-28T22:28:36;2.70;92.80
33673;DHT22;20011;51.510;9.942;2023-02-28T22:31:26;2.20;92.50
33673;DHT22;20011;51.510;9.942;2023-02-28T22:33:51;3.80;92.40
33673;DHT22;20011;51.510;9.942;2023-02-28T22:36:18;2.10;93.00
33673;DHT22;20011;51.510;9.942;2023-02-28T22:38:46;1.40;92.10
33673;DHT22;20011;51.510;9.942;2023-02-28T22:41:14;3.80;93.10
33673;DHT22;20011;51.510;9.942;2023-02-28T22:43:41;1.20;93.30
33673;DHT22;20011;51.510;9.942;2023-02-28T22:46:09;4.50;94.00
33673;DHT22;20011;51.510;9.942;2023-02-28T22:48:36;5.60;94.50
33673;DHT22;20011;51.510;9.942;2023-02-28T22:51:04;4.40;94.80
33673;DHT22;20011;51.510;9.942;2023-02-28T22:53:32;2.00;94.20
33673;DHT22;20011;51.510;9.942;2023-02-28T22:56:00;1.90;94.40
33673;DHT22;20011;51.510;9.942;2023-02-28T22:58:27;1.10;94.50
33673;DHT22;20011;51.510;9.942;2023-02-28T23:00:54;2.20;95.50
33673;DHT22;20011;51.510;9.942;2023-02-28T23:03:22;1.60;95.30
33673;DHT22;20011;51.510;9.942;2023-02-28T23:05:50;5.50;95.90
33673;DHT22;20011;51.510;9.942;2023-02-28T23:08:17;0.40;93.90
33673;DHT22;20011;51.510;9.942;2023-02-28T23:10:48;1.80;94.20
33673;DHT22;20011;51.510;9.942;2023-02-28T23:13:17;1.30;93.50
33673;DHT22;20011;51.510;9.942;2023-02-28T23:15:44;1.80;93.90
33673;DHT22;20011;51.510;9.942;2023-02-28T23:18:11;3.80;94.20
33673;DHT22;20011;51.510;9.942;2023-02-28T23:20:38;4.60;94.70
33673;DHT22;20011;51.510;9.942;2023-02-28T23:23:05;1.70;94.40
33673;DHT22;20011;51.510;9.942;2023-02-28T23:25:32;1.40;94.80
33673;DHT22;20011;51.510;9.942;2023-02-28T23:27:59;1.70;95.40
33673;DHT22;20011;51.510;9.942;2023-02-28T23:30:29;0.90;94.90
33673;DHT22;20011;51.510;9.942;2023-02-28T23:32:56;4.30;95.70
33673;DHT22;20011;51.510;9.942;2023-02-28T23:35:23;0.80;94.80
33673;DHT22;20011;51.510;9.942;2023-02-28T23:37:50;4.40;96.60
33673;DHT22;20011;51.510;9.942;2023-02-28T23:40:17;2.60;96.10
33673;DHT22;20011;51.510;9.942;2023-02-28T23:42:44;1.30;95.20
33673;DHT22;20011;51.510;9.942;2023-02-28T23:45:11;1.30;95.60
33673;DHT22;20011;51.510;9.942;2023-02-28T23:47:37;1.30;95.20
33673;DHT22;20011;51.510;9.942;2023-02-28T23:50:04;0.80;95.20
33673;DHT22;20011;51.510;9.942;2023-02-28T23:52:31;1.20;95.50
33673;DHT22;20011;51.510;9.942;2023-02-28T23:54:58;0.60;95.50
33673;DHT22;20011;51.510;9.942;2023-02-28T23:57:26;4.10;96.20
33673;DHT22;20011;51.510;9.942;2023-02-28T23:59:54;1.10;95.70
